Alger, MI (48610)

10:11 PM EST on November 23, 2014 (GMT -0500)
Pinconning farm country, (Pintucky Hawg Farm) | Change Station
CLOSE
Current Station
Personal Weather Station
Location: Pinconning, MI
Elevation: 623 ft
Nearby Weather Stations

Elev 623 ft 43.82 °N, 84.03 °W | Updated 9 minutes ago

Rain
Rain
43.9 °F
Feels Like 41 °F
N
4.7
Wind Variable Wind from ENE

Today
High -- | Low -- °F
--% Chance of Precip.
Yesterday
High -- | Low -- °F
Precip. -- in
7:41 AM 5:03 PM
Waxing Crescent, 3% visible
Pressure 29.39 in
Visibility 4.0 miles
Clouds Mostly Cloudy 500 ft
Mostly Cloudy 1500 ft
Overcast 4000 ft
Windchill 41 °F
Dew Point 44 °F
Humidity 99%
Rainfall 0.66 in
Snow Depth Not available.
UV 0 out of 12
Pollen .10 out of 12
Air Quality Not available.
Flu Activity Not available.
SPECI KHTL 240300Z AUTO 11010KT 4SM RA BR BKN005 BKN015 OVC040 08/07 A2939 RMK AO2 PRESFR P0002 T00780072

More Conditions Fewer Conditions

Pressure 29.39 in
Visibility 4.0 miles
Clouds Mostly Cloudy 500 ft
Mostly Cloudy 1500 ft
Overcast 4000 ft
Windchill 41 °F
Dew Point 44 °F
Humidity 99%
Rainfall 0.66 in
Snow Depth Not available.
UV 0 out of 12
Pollen .10 out of 12
Air Quality Not available.
Flu Activity Not available.
SPECI KHTL 240300Z AUTO 11010KT 4SM RA BR BKN005 BKN015 OVC040 08/07 A2939 RMK AO2 PRESFR P0002 T00780072

More Conditions Fewer Conditions

Nowcast | as of 10:00 PM EST on November 23, 2014

At 11 PM...areas of fog. Rain. Temperature 44. Southeast winds 10 mph. At 1 am...areas of fog. Rain. Temperature 43. Southeast winds 13 mph. At 3 am...areas of fog. Rain. Temperature 44. Southeast winds 11 mph. At 5 am...areas of fog. Rain. Temperature 45. South winds 11 mph.

×

10-Day Weather Forecast

Almanac

Astronomy

Nov. 23, 2014 Rise Set
Actual Time
Civil Twilight
Nautical Twilight
Astronomical Twilight
Moon
Length of Visible Light
Length of Day
Tomorrow will be .
, % of the Moon is Illuminated

Today's Extremes

State Highs State Lows

Community

WunderPhotos

Upload Photos

1,773,257 photos uploaded!

WunderBlogs® & News

Nearby

Air Quality

  Air Quality AQ Index Pollutant
Not available.

Snow Depth

Station Depth Elevation

Earthquake Activity

City Distance Mag. Time & Date
Minimum magnitude displayed is 2.5.

Coastal Water Temperatures

Place Temperature

Nearby Weather Stations